sensor_id;sensor_type;location;lat;lon;timestamp;temperature;humidity
11840;DHT22;5979;50.800;4.904;2024-02-14T00:00:11;9.20;99.90
11840;DHT22;5979;50.800;4.904;2024-02-14T00:02:45;9.20;99.90
11840;DHT22;5979;50.800;4.904;2024-02-14T00:05:11;9.20;99.90
11840;DHT22;5979;50.800;4.904;2024-02-14T00:07:38;9.20;99.90
11840;DHT22;5979;50.800;4.904;2024-02-14T00:10:05;9.20;99.90
11840;DHT22;5979;50.800;4.904;2024-02-14T00:12:34;9.20;99.90
11840;DHT22;5979;50.800;4.904;2024-02-14T00:15:02;9.30;99.90
11840;DHT22;5979;50.800;4.904;2024-02-14T00:17:28;9.30;99.90
11840;DHT22;5979;50.800;4.904;2024-02-14T00:19:54;9.30;99.90
11840;DHT22;5979;50.800;4.904;2024-02-14T00:22:20;9.30;99.90
11840;DHT22;5979;50.800;4.904;2024-02-14T00:24:45;9.30;99.90
11840;DHT22;5979;50.800;4.904;2024-02-14T00:27:11;9.30;99.90
11840;DHT22;5979;50.800;4.904;2024-02-14T00:29:40;9.20;99.90
11840;DHT22;5979;50.800;4.904;2024-02-14T00:32:05;9.30;99.90
11840;DHT22;5979;50.800;4.904;2024-02-14T00:34:31;9.20;99.90
11840;DHT22;5979;50.800;4.904;2024-02-14T00:36:57;9.20;99.90
11840;DHT22;5979;50.800;4.904;2024-02-14T00:39:22;9.30;99.90
11840;DHT22;5979;50.800;4.904;2024-02-14T00:41:48;9.30;99.90
11840;DHT22;5979;50.800;4.904;2024-02-14T00:44:15;9.30;99.90
11840;DHT22;5979;50.800;4.904;2024-02-14T00:46:43;9.30;99.90
11840;DHT22;5979;50.800;4.904;2024-02-14T00:49:09;9.30;99.90
11840;DHT22;5979;50.800;4.904;2024-02-14T00:51:35;9.30;99.90
11840;DHT22;5979;50.800;4.904;2024-02-14T00:54:03;9.30;99.90
11840;DHT22;5979;50.800;4.904;2024-02-14T00:56:29;9.30;99.90
11840;DHT22;5979;50.800;4.904;2024-02-14T00:58:54;9.30;99.90
11840;DHT22;5979;50.800;4.904;2024-02-14T01:01:20;9.30;99.90
11840;DHT22;5979;50.800;4.904;2024-02-14T01:03:46;9.30;99.90
11840;DHT22;5979;50.800;4.904;2024-02-14T01:06:12;9.30;99.90
11840;DHT22;5979;50.800;4.904;2024-02-14T01:08:39;9.30;99.90
11840;DHT22;5979;50.800;4.904;2024-02-14T01:11:07;9.30;99.90
11840;DHT22;5979;50.800;4.904;2024-02-14T01:13:32;9.30;99.90
11840;DHT22;5979;50.800;4.904;2024-02-14T01:15:58;9.30;99.90
11840;DHT22;5979;50.800;4.904;2024-02-14T01:18:24;9.30;99.90
11840;DHT22;5979;50.800;4.904;2024-02-14T01:20:50;9.40;99.90
11840;DHT22;5979;50.800;4.904;2024-02-14T01:23:16;9.40;99.90
11840;DHT22;5979;50.800;4.904;2024-02-14T01:25:41;9.40;99.90
11840;DHT22;5979;50.800;4.904;2024-02-14T01:28:09;9.40;99.90
11840;DHT22;5979;50.800;4.904;2024-02-14T01:30:35;9.40;99.90
11840;DHT22;5979;50.800;4.904;2024-02-14T01:33:01;9.40;99.90
11840;DHT22;5979;50.800;4.904;2024-02-14T01:35:30;9.50;99.90
11840;DHT22;5979;50.800;4.904;2024-02-14T01:37:55;9.50;99.90
11840;DHT22;5979;50.800;4.904;2024-02-14T01:40:21;9.50;99.90
11840;DHT22;5979;50.800;4.904;2024-02-14T01:42:47;9.50;99.90
11840;DHT22;5979;50.800;4.904;2024-02-14T01:45:13;9.50;99.90
11840;DHT22;5979;50.800;4.904;2024-02-14T01:47:38;9.50;99.90
11840;DHT22;5979;50.800;4.904;2024-02-14T01:50:08;9.50;99.90
11840;DHT22;5979;50.800;4.904;2024-02-14T01:52:34;9.50;99.90
11840;DHT22;5979;50.800;4.904;2024-02-14T01:55:02;9.50;99.90
11840;DHT22;5979;50.800;4.904;2024-02-14T01:57:28;9.50;99.90
11840;DHT22;5979;50.800;4.904;2024-02-14T01:59:54;9.50;99.90
11840;DHT22;5979;50.800;4.904;2024-02-14T02:02:22;9.50;99.90
11840;DHT22;5979;50.800;4.904;2024-02-14T02:04:47;9.50;99.90
11840;DHT22;5979;50.800;4.904;2024-02-14T02:07:13;9.50;99.90
11840;DHT22;5979;50.800;4.904;2024-02-14T02:09:39;9.40;99.90
11840;DHT22;5979;50.800;4.904;2024-02-14T02:12:04;9.40;99.90
11840;DHT22;5979;50.800;4.904;2024-02-14T02:14:33;9.40;99.90
11840;DHT22;5979;50.800;4.904;2024-02-14T02:16:59;9.40;99.90
11840;DHT22;5979;50.800;4.904;2024-02-14T02:19:24;9.40;99.90
11840;DHT22;5979;50.800;4.904;2024-02-14T02:21:50;9.40;99.90
11840;DHT22;5979;50.800;4.904;2024-02-14T02:24:17;9.40;99.90
11840;DHT22;5979;50.800;4.904;2024-02-14T02:26:43;9.40;99.90
11840;DHT22;5979;50.800;4.904;2024-02-14T02:29:09;9.30;99.90
11840;DHT22;5979;50.800;4.904;2024-02-14T02:31:35;9.30;99.90
11840;DHT22;5979;50.800;4.904;2024-02-14T02:34:02;9.30;99.90
11840;DHT22;5979;50.800;4.904;2024-02-14T02:36:27;9.30;99.90
11840;DHT22;5979;50.800;4.904;2024-02-14T02:38:56;9.30;99.90
11840;DHT22;5979;50.800;4.904;2024-02-14T02:41:22;9.30;99.90
11840;DHT22;5979;50.800;4.904;2024-02-14T02:43:47;9.30;99.90
11840;DHT22;5979;50.800;4.904;2024-02-14T02:46:15;9.30;99.90
11840;DHT22;5979;50.800;4.904;2024-02-14T02:48:41;9.30;99.90
11840;DHT22;5979;50.800;4.904;2024-02-14T02:51:06;9.30;99.90
11840;DHT22;5979;50.800;4.904;2024-02-14T02:53:32;9.30;99.90
11840;DHT22;5979;50.800;4.904;2024-02-14T02:55:58;9.30;99.90
11840;DHT22;5979;50.800;4.904;2024-02-14T02:58:25;9.30;99.90
11840;DHT22;5979;50.800;4.904;2024-02-14T03:00:51;9.40;99.90
11840;DHT22;5979;50.800;4.904;2024-02-14T03:03:20;9.40;99.90
11840;DHT22;5979;50.800;4.904;2024-02-14T03:05:47;9.40;99.90
11840;DHT22;5979;50.800;4.904;2024-02-14T03:08:13;9.40;99.90
11840;DHT22;5979;50.800;4.904;2024-02-14T03:10:41;9.40;99.90
11840;DHT22;5979;50.800;4.904;2024-02-14T03:13:06;9.40;99.90
11840;DHT22;5979;50.800;4.904;2024-02-14T03:15:37;9.40;99.90
11840;DHT22;5979;50.800;4.904;2024-02-14T03:18:03;9.40;99.90
11840;DHT22;5979;50.800;4.904;2024-02-14T03:20:35;9.40;99.90
11840;DHT22;5979;50.800;4.904;2024-02-14T03:23:01;9.40;99.90
11840;DHT22;5979;50.800;4.904;2024-02-14T03:25:29;9.40;99.90
11840;DHT22;5979;50.800;4.904;2024-02-14T03:27:54;9.50;99.90
11840;DHT22;5979;50.800;4.904;2024-02-14T03:30:23;9.50;99.90
11840;DHT22;5979;50.800;4.904;2024-02-14T03:32:51;9.50;99.90
11840;DHT22;5979;50.800;4.904;2024-02-14T03:35:18;9.50;99.90
11840;DHT22;5979;50.800;4.904;2024-02-14T03:37:45;9.50;99.90
11840;DHT22;5979;50.800;4.904;2024-02-14T03:40:14;9.50;99.90
11840;DHT22;5979;50.800;4.904;2024-02-14T03:42:39;9.50;99.90
11840;DHT22;5979;50.800;4.904;2024-02-14T03:45:06;9.50;99.90
11840;DHT22;5979;50.800;4.904;2024-02-14T03:47:32;9.60;99.90
11840;DHT22;5979;50.800;4.904;2024-02-14T03:49:59;9.60;99.90
11840;DHT22;5979;50.800;4.904;2024-02-14T03:52:25;9.60;99.90
11840;DHT22;5979;50.800;4.904;2024-02-14T03:54:52;9.60;99.90
11840;DHT22;5979;50.800;4.904;2024-02-14T03:57:17;9.60;99.90
11840;DHT22;5979;50.800;4.904;2024-02-14T03:59:44;9.60;99.90
11840;DHT22;5979;50.800;4.904;2024-02-14T04:02:10;9.60;99.90
11840;DHT22;5979;50.800;4.904;2024-02-14T04:04:38;9.50;99.90
11840;DHT22;5979;50.800;4.904;2024-02-14T04:07:05;9.50;99.90
11840;DHT22;5979;50.800;4.904;2024-02-14T04:09:33;9.50;99.90
11840;DHT22;5979;50.800;4.904;2024-02-14T04:11:58;9.50;99.90
11840;DHT22;5979;50.800;4.904;2024-02-14T04:14:24;9.50;99.90
11840;DHT22;5979;50.800;4.904;2024-02-14T04:16:49;9.50;99.90
11840;DHT22;5979;50.800;4.904;2024-02-14T04:19:15;9.50;99.90
11840;DHT22;5979;50.800;4.904;2024-02-14T04:21:43;9.50;99.90
11840;DHT22;5979;50.800;4.904;2024-02-14T04:24:09;9.50;99.90
11840;DHT22;5979;50.800;4.904;2024-02-14T04:26:34;9.60;99.90
11840;DHT22;5979;50.800;4.904;2024-02-14T04:29:01;9.60;99.90
11840;DHT22;5979;50.800;4.904;2024-02-14T04:31:26;9.60;99.90
11840;DHT22;5979;50.800;4.904;2024-02-14T04:33:55;9.60;99.90
11840;DHT22;5979;50.800;4.904;2024-02-14T04:36:21;9.60;99.90
11840;DHT22;5979;50.800;4.904;2024-02-14T04:38:50;9.60;99.90
11840;DHT22;5979;50.800;4.904;2024-02-14T04:41:16;9.70;99.90
11840;DHT22;5979;50.800;4.904;2024-02-14T04:43:42;9.70;99.90
11840;DHT22;5979;50.800;4.904;2024-02-14T04:46:08;9.70;99.90
11840;DHT22;5979;50.800;4.904;2024-02-14T04:48:36;9.70;99.90
11840;DHT22;5979;50.800;4.904;2024-02-14T04:51:03;9.70;99.90
11840;DHT22;5979;50.800;4.904;2024-02-14T04:53:33;9.70;99.90
11840;DHT22;5979;50.800;4.904;2024-02-14T04:55:59;9.70;99.90
11840;DHT22;5979;50.800;4.904;2024-02-14T04:58:25;9.70;99.90
11840;DHT22;5979;50.800;4.904;2024-02-14T05:00:52;9.70;99.90
11840;DHT22;5979;50.800;4.904;2024-02-14T05:03:18;9.70;99.90
11840;DHT22;5979;50.800;4.904;2024-02-14T05:05:44;9.70;99.90
11840;DHT22;5979;50.800;4.904;2024-02-14T05:08:09;9.70;99.90
11840;DHT22;5979;50.800;4.904;2024-02-14T05:10:35;9.70;99.90
11840;DHT22;5979;50.800;4.904;2024-02-14T05:13:00;9.70;99.90
11840;DHT22;5979;50.800;4.904;2024-02-14T05:15:26;9.70;99.90
11840;DHT22;5979;50.800;4.904;2024-02-14T05:17:52;9.70;99.90
11840;DHT22;5979;50.800;4.904;2024-02-14T05:20:18;9.70;99.90
11840;DHT22;5979;50.800;4.904;2024-02-14T05:22:44;9.70;99.90
11840;DHT22;5979;50.800;4.904;2024-02-14T05:25:09;9.70;99.90
11840;DHT22;5979;50.800;4.904;2024-02-14T05:27:35;9.70;99.90
11840;DHT22;5979;50.800;4.904;2024-02-14T05:30:02;9.70;99.90
11840;DHT22;5979;50.800;4.904;2024-02-14T05:32:31;9.70;99.90
11840;DHT22;5979;50.800;4.904;2024-02-14T05:34:57;9.70;99.90
11840;DHT22;5979;50.800;4.904;2024-02-14T05:37:23;9.70;99.90
11840;DHT22;5979;50.800;4.904;2024-02-14T05:39:48;9.70;99.90
11840;DHT22;5979;50.800;4.904;2024-02-14T05:42:14;9.70;99.90
11840;DHT22;5979;50.800;4.904;2024-02-14T05:44:42;9.70;99.90
11840;DHT22;5979;50.800;4.904;2024-02-14T05:47:08;9.70;99.90
11840;DHT22;5979;50.800;4.904;2024-02-14T05:49:34;9.80;99.90
11840;DHT22;5979;50.800;4.904;2024-02-14T05:52:00;9.80;99.90
11840;DHT22;5979;50.800;4.904;2024-02-14T05:54:25;9.70;99.90
11840;DHT22;5979;50.800;4.904;2024-02-14T05:56:51;9.70;99.90
11840;DHT22;5979;50.800;4.904;2024-02-14T05:59:16;9.70;99.90
11840;DHT22;5979;50.800;4.904;2024-02-14T06:01:42;9.80;99.90
11840;DHT22;5979;50.800;4.904;2024-02-14T06:04:08;9.80;99.90
11840;DHT22;5979;50.800;4.904;2024-02-14T06:06:34;9.80;99.90
11840;DHT22;5979;50.800;4.904;2024-02-14T06:08:59;9.80;99.90
11840;DHT22;5979;50.800;4.904;2024-02-14T06:11:25;9.80;99.90
11840;DHT22;5979;50.800;4.904;2024-02-14T06:13:50;9.80;99.90
11840;DHT22;5979;50.800;4.904;2024-02-14T06:16:16;9.80;99.90
11840;DHT22;5979;50.800;4.904;2024-02-14T06:18:42;9.80;99.90
11840;DHT22;5979;50.800;4.904;2024-02-14T06:21:07;9.90;99.90
11840;DHT22;5979;50.800;4.904;2024-02-14T06:23:34;9.90;99.90
11840;DHT22;5979;50.800;4.904;2024-02-14T06:25:59;9.90;99.90
11840;DHT22;5979;50.800;4.904;2024-02-14T06:28:25;9.90;99.90
11840;DHT22;5979;50.800;4.904;2024-02-14T06:30:50;9.90;99.90
11840;DHT22;5979;50.800;4.904;2024-02-14T06:33:16;9.90;99.90
11840;DHT22;5979;50.800;4.904;2024-02-14T06:35:42;9.90;99.90
11840;DHT22;5979;50.800;4.904;2024-02-14T06:38:07;10.00;99.90
11840;DHT22;5979;50.800;4.904;2024-02-14T06:40:33;10.00;99.90
11840;DHT22;5979;50.800;4.904;2024-02-14T06:42:59;10.00;99.90
11840;DHT22;5979;50.800;4.904;2024-02-14T06:45:28;10.00;99.90
11840;DHT22;5979;50.800;4.904;2024-02-14T06:47:54;10.00;99.90
11840;DHT22;5979;50.800;4.904;2024-02-14T06:50:20;10.00;99.90
11840;DHT22;5979;50.800;4.904;2024-02-14T06:52:46;10.00;99.90
11840;DHT22;5979;50.800;4.904;2024-02-14T06:55:11;10.10;99.90
11840;DHT22;5979;50.800;4.904;2024-02-14T06:57:38;10.10;99.90
11840;DHT22;5979;50.800;4.904;2024-02-14T07:00:04;10.10;99.90
11840;DHT22;5979;50.800;4.904;2024-02-14T07:02:34;10.10;99.90
11840;DHT22;5979;50.800;4.904;2024-02-14T07:04:59;10.20;99.90
11840;DHT22;5979;50.800;4.904;2024-02-14T07:07:25;10.20;99.90
11840;DHT22;5979;50.800;4.904;2024-02-14T07:09:51;10.20;99.90
11840;DHT22;5979;50.800;4.904;2024-02-14T07:12:16;10.20;99.90
11840;DHT22;5979;50.800;4.904;2024-02-14T07:14:42;10.20;99.90
11840;DHT22;5979;50.800;4.904;2024-02-14T07:17:08;10.20;99.90
11840;DHT22;5979;50.800;4.904;2024-02-14T07:19:33;10.20;99.90
11840;DHT22;5979;50.800;4.904;2024-02-14T07:21:59;10.20;99.90
11840;DHT22;5979;50.800;4.904;2024-02-14T07:24:24;10.20;99.90
11840;DHT22;5979;50.800;4.904;2024-02-14T07:26:50;10.30;99.90
11840;DHT22;5979;50.800;4.904;2024-02-14T07:29:16;10.30;99.90
11840;DHT22;5979;50.800;4.904;2024-02-14T07:31:41;10.30;99.90
11840;DHT22;5979;50.800;4.904;2024-02-14T07:34:07;10.40;99.90
11840;DHT22;5979;50.800;4.904;2024-02-14T07:36:33;10.40;99.90
11840;DHT22;5979;50.800;4.904;2024-02-14T07:38:58;10.40;99.90
11840;DHT22;5979;50.800;4.904;2024-02-14T07:41:24;10.40;99.90
11840;DHT22;5979;50.800;4.904;2024-02-14T07:43:50;10.40;99.90
11840;DHT22;5979;50.800;4.904;2024-02-14T07:46:19;10.40;99.90
11840;DHT22;5979;50.800;4.904;2024-02-14T07:48:45;10.40;99.90
11840;DHT22;5979;50.800;4.904;2024-02-14T07:51:11;10.50;99.90
11840;DHT22;5979;50.800;4.904;2024-02-14T07:53:37;10.50;99.90
11840;DHT22;5979;50.800;4.904;2024-02-14T07:56:03;10.50;99.90
11840;DHT22;5979;50.800;4.904;2024-02-14T07:58:29;10.50;99.90
11840;DHT22;5979;50.800;4.904;2024-02-14T08:00:54;10.50;99.90
11840;DHT22;5979;50.800;4.904;2024-02-14T08:03:20;10.60;99.90
11840;DHT22;5979;50.800;4.904;2024-02-14T08:05:46;10.60;99.90
11840;DHT22;5979;50.800;4.904;2024-02-14T08:08:11;10.60;99.90
11840;DHT22;5979;50.800;4.904;2024-02-14T08:10:37;10.70;99.90
11840;DHT22;5979;50.800;4.904;2024-02-14T08:13:04;10.70;99.90
11840;DHT22;5979;50.800;4.904;2024-02-14T08:15:30;10.70;99.90
11840;DHT22;5979;50.800;4.904;2024-02-14T08:17:55;10.80;99.90
11840;DHT22;5979;50.800;4.904;2024-02-14T08:20:22;10.80;99.90
11840;DHT22;5979;50.800;4.904;2024-02-14T08:22:49;10.80;99.90
11840;DHT22;5979;50.800;4.904;2024-02-14T08:25:15;10.80;99.90
11840;DHT22;5979;50.800;4.904;2024-02-14T08:27:41;10.80;99.90
11840;DHT22;5979;50.800;4.904;2024-02-14T08:30:07;10.80;99.90
11840;DHT22;5979;50.800;4.904;2024-02-14T08:32:34;10.90;99.90
11840;DHT22;5979;50.800;4.904;2024-02-14T08:35:00;10.90;99.90
11840;DHT22;5979;50.800;4.904;2024-02-14T08:37:26;10.90;99.90
11840;DHT22;5979;50.800;4.904;2024-02-14T08:39:52;10.90;99.90
11840;DHT22;5979;50.800;4.904;2024-02-14T08:42:18;10.90;99.90
11840;DHT22;5979;50.800;4.904;2024-02-14T08:44:44;11.00;99.90
11840;DHT22;5979;50.800;4.904;2024-02-14T08:47:09;10.90;99.90
11840;DHT22;5979;50.800;4.904;2024-02-14T08:49:36;11.00;99.90
11840;DHT22;5979;50.800;4.904;2024-02-14T08:52:02;11.00;99.90
11840;DHT22;5979;50.800;4.904;2024-02-14T08:54:28;11.00;99.90
11840;DHT22;5979;50.800;4.904;2024-02-14T08:56:54;11.10;99.90
11840;DHT22;5979;50.800;4.904;2024-02-14T08:59:22;11.10;99.90
11840;DHT22;5979;50.800;4.904;2024-02-14T09:01:48;11.20;99.90
11840;DHT22;5979;50.800;4.904;2024-02-14T09:04:14;11.20;99.90
11840;DHT22;5979;50.800;4.904;2024-02-14T09:06:39;11.20;99.90
11840;DHT22;5979;50.800;4.904;2024-02-14T09:09:07;11.30;99.90
11840;DHT22;5979;50.800;4.904;2024-02-14T09:11:35;11.30;99.90
11840;DHT22;5979;50.800;4.904;2024-02-14T09:14:01;11.30;99.90
11840;DHT22;5979;50.800;4.904;2024-02-14T09:16:34;11.20;99.90
11840;DHT22;5979;50.800;4.904;2024-02-14T09:19:00;11.30;99.90
11840;DHT22;5979;50.800;4.904;2024-02-14T09:21:30;11.20;99.90
11840;DHT22;5979;50.800;4.904;2024-02-14T09:23:56;11.30;99.90
11840;DHT22;5979;50.800;4.904;2024-02-14T09:26:22;11.30;99.90
11840;DHT22;5979;50.800;4.904;2024-02-14T09:28:47;11.40;99.90
11840;DHT22;5979;50.800;4.904;2024-02-14T09:31:18;11.30;99.90
11840;DHT22;5979;50.800;4.904;2024-02-14T09:33:46;11.40;99.90
11840;DHT22;5979;50.800;4.904;2024-02-14T09:36:13;11.40;99.90
11840;DHT22;5979;50.800;4.904;2024-02-14T09:38:39;11.40;99.90
11840;DHT22;5979;50.800;4.904;2024-02-14T09:43:43;11.40;99.90
11840;DHT22;5979;50.800;4.904;2024-02-14T09:46:14;11.50;99.90
11840;DHT22;5979;50.800;4.904;2024-02-14T09:48:44;11.50;99.90
11840;DHT22;5979;50.800;4.904;2024-02-14T09:51:11;11.60;99.90
11840;DHT22;5979;50.800;4.904;2024-02-14T09:53:38;11.60;99.90
11840;DHT22;5979;50.800;4.904;2024-02-14T09:56:05;11.70;99.90
11840;DHT22;5979;50.800;4.904;2024-02-14T09:58:32;11.80;99.90
11840;DHT22;5979;50.800;4.904;2024-02-14T10:01:01;11.80;99.90
11840;DHT22;5979;50.800;4.904;2024-02-14T10:03:26;11.80;99.90
11840;DHT22;5979;50.800;4.904;2024-02-14T10:05:52;11.80;99.90
11840;DHT22;5979;50.800;4.904;2024-02-14T10:08:22;11.80;99.90
11840;DHT22;5979;50.800;4.904;2024-02-14T10:10:49;11.70;99.90
11840;DHT22;5979;50.800;4.904;2024-02-14T10:13:15;11.70;99.90
11840;DHT22;5979;50.800;4.904;2024-02-14T10:15:41;11.70;99.90
11840;DHT22;5979;50.800;4.904;2024-02-14T10:18:07;11.80;99.90
11840;DHT22;5979;50.800;4.904;2024-02-14T10:20:35;11.80;99.90
11840;DHT22;5979;50.800;4.904;2024-02-14T10:23:07;11.80;99.90
11840;DHT22;5979;50.800;4.904;2024-02-14T10:25:36;11.80;99.90
11840;DHT22;5979;50.800;4.904;2024-02-14T10:28:04;11.80;99.90
11840;DHT22;5979;50.800;4.904;2024-02-14T10:30:36;11.80;99.90
11840;DHT22;5979;50.800;4.904;2024-02-14T10:33:04;11.80;99.90
11840;DHT22;5979;50.800;4.904;2024-02-14T10:35:35;11.80;99.90
11840;DHT22;5979;50.800;4.904;2024-02-14T10:38:02;11.80;99.90
11840;DHT22;5979;50.800;4.904;2024-02-14T10:40:29;11.80;99.90
11840;DHT22;5979;50.800;4.904;2024-02-14T10:42:57;11.80;99.90
11840;DHT22;5979;50.800;4.904;2024-02-14T10:45:25;11.80;99.90
11840;DHT22;5979;50.800;4.904;2024-02-14T10:47:52;11.80;99.90
11840;DHT22;5979;50.800;4.904;2024-02-14T10:50:21;11.80;99.90
11840;DHT22;5979;50.800;4.904;2024-02-14T10:52:48;11.80;99.90
11840;DHT22;5979;50.800;4.904;2024-02-14T10:55:16;11.70;99.90
11840;DHT22;5979;50.800;4.904;2024-02-14T10:57:43;11.80;99.90
11840;DHT22;5979;50.800;4.904;2024-02-14T11:00:13;11.80;99.90
11840;DHT22;5979;50.800;4.904;2024-02-14T11:02:41;11.80;99.90
11840;DHT22;5979;50.800;4.904;2024-02-14T11:05:12;11.80;99.90
11840;DHT22;5979;50.800;4.904;2024-02-14T11:07:47;11.70;99.90
11840;DHT22;5979;50.800;4.904;2024-02-14T11:10:16;11.70;99.90
11840;DHT22;5979;50.800;4.904;2024-02-14T11:12:41;11.70;99.90
11840;DHT22;5979;50.800;4.904;2024-02-14T11:17:40;11.80;99.90
11840;DHT22;5979;50.800;4.904;2024-02-14T11:20:19;11.80;99.90
11840;DHT22;5979;50.800;4.904;2024-02-14T11:22:58;11.80;99.90
11840;DHT22;5979;50.800;4.904;2024-02-14T11:25:34;11.90;99.90
11840;DHT22;5979;50.800;4.904;2024-02-14T11:28:01;11.90;99.90
11840;DHT22;5979;50.800;4.904;2024-02-14T11:30:34;11.90;99.90
11840;DHT22;5979;50.800;4.904;2024-02-14T11:33:26;11.90;99.90
11840;DHT22;5979;50.800;4.904;2024-02-14T11:35:53;12.00;99.90
11840;DHT22;5979;50.800;4.904;2024-02-14T11:38:21;12.00;99.90
11840;DHT22;5979;50.800;4.904;2024-02-14T11:40:47;11.90;99.90
11840;DHT22;5979;50.800;4.904;2024-02-14T11:43:15;12.00;99.90
11840;DHT22;5979;50.800;4.904;2024-02-14T11:45:43;12.00;99.90
11840;DHT22;5979;50.800;4.904;2024-02-14T11:48:13;12.00;99.90
11840;DHT22;5979;50.800;4.904;2024-02-14T11:50:43;12.00;99.90
11840;DHT22;5979;50.800;4.904;2024-02-14T11:53:13;12.10;99.90
11840;DHT22;5979;50.800;4.904;2024-02-14T11:55:42;12.10;99.90
11840;DHT22;5979;50.800;4.904;2024-02-14T11:58:11;12.10;99.90
11840;DHT22;5979;50.800;4.904;2024-02-14T12:00:42;12.10;99.90
11840;DHT22;5979;50.800;4.904;2024-02-14T12:03:21;12.10;99.90
11840;DHT22;5979;50.800;4.904;2024-02-14T12:05:51;12.10;99.90
11840;DHT22;5979;50.800;4.904;2024-02-14T12:08:17;12.10;99.90
11840;DHT22;5979;50.800;4.904;2024-02-14T12:10:44;12.20;99.90
11840;DHT22;5979;50.800;4.904;2024-02-14T12:13:14;12.20;99.90
11840;DHT22;5979;50.800;4.904;2024-02-14T12:15:50;12.30;99.90
11840;DHT22;5979;50.800;4.904;2024-02-14T12:18:18;12.30;99.90
11840;DHT22;5979;50.800;4.904;2024-02-14T12:20:44;12.30;99.90
11840;DHT22;5979;50.800;4.904;2024-02-14T12:23:18;12.30;99.90
11840;DHT22;5979;50.800;4.904;2024-02-14T12:25:45;12.40;99.90
11840;DHT22;5979;50.800;4.904;2024-02-14T12:28:18;12.40;99.90
11840;DHT22;5979;50.800;4.904;2024-02-14T12:30:47;12.40;99.90
11840;DHT22;5979;50.800;4.904;2024-02-14T12:33:15;12.40;99.90
11840;DHT22;5979;50.800;4.904;2024-02-14T12:35:48;12.40;99.90
11840;DHT22;5979;50.800;4.904;2024-02-14T12:38:15;12.40;99.90
11840;DHT22;5979;50.800;4.904;2024-02-14T12:40:41;12.40;99.90
11840;DHT22;5979;50.800;4.904;2024-02-14T12:43:08;12.40;99.90
11840;DHT22;5979;50.800;4.904;2024-02-14T12:45:34;12.40;99.90
11840;DHT22;5979;50.800;4.904;2024-02-14T12:48:00;12.50;99.90
11840;DHT22;5979;50.800;4.904;2024-02-14T12:50:26;12.60;99.90
11840;DHT22;5979;50.800;4.904;2024-02-14T12:52:52;12.60;99.90
11840;DHT22;5979;50.800;4.904;2024-02-14T12:55:18;12.60;99.90
11840;DHT22;5979;50.800;4.904;2024-02-14T12:57:44;12.60;99.90
11840;DHT22;5979;50.800;4.904;2024-02-14T13:00:10;12.60;99.90
11840;DHT22;5979;50.800;4.904;2024-02-14T13:02:37;12.60;99.90
11840;DHT22;5979;50.800;4.904;2024-02-14T13:05:04;12.50;99.90
11840;DHT22;5979;50.800;4.904;2024-02-14T13:07:33;12.50;99.90
11840;DHT22;5979;50.800;4.904;2024-02-14T13:09:59;12.50;99.90
11840;DHT22;5979;50.800;4.904;2024-02-14T13:12:26;12.50;99.90
11840;DHT22;5979;50.800;4.904;2024-02-14T13:14:51;12.50;99.90
11840;DHT22;5979;50.800;4.904;2024-02-14T13:17:17;12.50;99.90
11840;DHT22;5979;50.800;4.904;2024-02-14T13:19:43;12.40;99.90
11840;DHT22;5979;50.800;4.904;2024-02-14T13:22:09;12.40;99.90
11840;DHT22;5979;50.800;4.904;2024-02-14T13:24:35;12.40;99.90
11840;DHT22;5979;50.800;4.904;2024-02-14T13:27:01;12.40;99.90
11840;DHT22;5979;50.800;4.904;2024-02-14T13:29:26;12.40;99.90
11840;DHT22;5979;50.800;4.904;2024-02-14T13:31:52;12.50;99.90
11840;DHT22;5979;50.800;4.904;2024-02-14T13:34:18;12.50;99.90
11840;DHT22;5979;50.800;4.904;2024-02-14T13:36:48;12.50;99.90
11840;DHT22;5979;50.800;4.904;2024-02-14T13:39:14;12.50;99.90
11840;DHT22;5979;50.800;4.904;2024-02-14T13:41:40;12.40;99.90
11840;DHT22;5979;50.800;4.904;2024-02-14T13:44:09;12.40;99.90
11840;DHT22;5979;50.800;4.904;2024-02-14T13:46:35;12.40;99.90
11840;DHT22;5979;50.800;4.904;2024-02-14T13:49:01;12.40;99.90
11840;DHT22;5979;50.800;4.904;2024-02-14T13:51:27;12.30;99.90
11840;DHT22;5979;50.800;4.904;2024-02-14T13:53:53;12.30;99.90
11840;DHT22;5979;50.800;4.904;2024-02-14T13:56:19;12.30;99.90
11840;DHT22;5979;50.800;4.904;2024-02-14T13:58:50;12.30;99.90
11840;DHT22;5979;50.800;4.904;2024-02-14T14:01:15;12.30;99.90
11840;DHT22;5979;50.800;4.904;2024-02-14T14:03:43;12.30;99.90
11840;DHT22;5979;50.800;4.904;2024-02-14T14:06:08;12.30;99.90
11840;DHT22;5979;50.800;4.904;2024-02-14T14:08:35;12.30;99.90
11840;DHT22;5979;50.800;4.904;2024-02-14T14:11:04;12.40;99.90
11840;DHT22;5979;50.800;4.904;2024-02-14T14:13:30;12.30;99.90
11840;DHT22;5979;50.800;4.904;2024-02-14T14:15:59;12.30;99.90
11840;DHT22;5979;50.800;4.904;2024-02-14T14:18:25;12.30;99.90
11840;DHT22;5979;50.800;4.904;2024-02-14T14:20:50;12.30;99.90
11840;DHT22;5979;50.800;4.904;2024-02-14T14:23:16;12.30;99.90
11840;DHT22;5979;50.800;4.904;2024-02-14T14:25:42;12.30;99.90
11840;DHT22;5979;50.800;4.904;2024-02-14T14:28:07;12.30;99.90
11840;DHT22;5979;50.800;4.904;2024-02-14T14:30:35;12.30;99.90
11840;DHT22;5979;50.800;4.904;2024-02-14T14:33:04;12.30;99.90
11840;DHT22;5979;50.800;4.904;2024-02-14T14:35:30;12.30;99.90
11840;DHT22;5979;50.800;4.904;2024-02-14T14:38:04;12.30;99.90
11840;DHT22;5979;50.800;4.904;2024-02-14T14:40:30;12.30;99.90
11840;DHT22;5979;50.800;4.904;2024-02-14T14:42:56;12.30;99.90
11840;DHT22;5979;50.800;4.904;2024-02-14T14:45:22;12.30;99.90
11840;DHT22;5979;50.800;4.904;2024-02-14T14:47:48;12.30;99.90
11840;DHT22;5979;50.800;4.904;2024-02-14T14:50:14;12.30;99.90
11840;DHT22;5979;50.800;4.904;2024-02-14T14:52:41;12.30;99.90
11840;DHT22;5979;50.800;4.904;2024-02-14T14:55:09;12.40;99.90
11840;DHT22;5979;50.800;4.904;2024-02-14T14:57:35;12.30;99.90
11840;DHT22;5979;50.800;4.904;2024-02-14T15:00:10;12.40;99.90
11840;DHT22;5979;50.800;4.904;2024-02-14T15:02:43;12.40;99.90
11840;DHT22;5979;50.800;4.904;2024-02-14T15:05:12;12.40;99.90
11840;DHT22;5979;50.800;4.904;2024-02-14T15:07:39;12.40;99.90
11840;DHT22;5979;50.800;4.904;2024-02-14T15:10:05;12.40;99.90
11840;DHT22;5979;50.800;4.904;2024-02-14T15:12:31;12.40;99.90
11840;DHT22;5979;50.800;4.904;2024-02-14T15:15:00;12.50;99.90
11840;DHT22;5979;50.800;4.904;2024-02-14T15:17:25;12.50;99.90
11840;DHT22;5979;50.800;4.904;2024-02-14T15:19:53;12.50;99.90
11840;DHT22;5979;50.800;4.904;2024-02-14T15:22:19;12.50;99.90
11840;DHT22;5979;50.800;4.904;2024-02-14T15:24:45;12.50;99.90
11840;DHT22;5979;50.800;4.904;2024-02-14T15:27:11;12.60;99.90
11840;DHT22;5979;50.800;4.904;2024-02-14T15:29:39;12.60;99.90
11840;DHT22;5979;50.800;4.904;2024-02-14T15:32:23;12.60;99.90
11840;DHT22;5979;50.800;4.904;2024-02-14T15:35:07;12.60;99.90
11840;DHT22;5979;50.800;4.904;2024-02-14T15:37:34;12.60;99.90
11840;DHT22;5979;50.800;4.904;2024-02-14T15:40:01;12.60;99.90
11840;DHT22;5979;50.800;4.904;2024-02-14T15:42:26;12.60;99.90
11840;DHT22;5979;50.800;4.904;2024-02-14T15:44:52;12.60;99.90
11840;DHT22;5979;50.800;4.904;2024-02-14T15:47:17;12.60;99.90
11840;DHT22;5979;50.800;4.904;2024-02-14T15:49:43;12.60;99.90
11840;DHT22;5979;50.800;4.904;2024-02-14T15:52:09;12.60;99.90
11840;DHT22;5979;50.800;4.904;2024-02-14T15:54:37;12.60;99.90